sensor_id;sensor_type;location;lat;lon;timestamp;pressure;altitude;pressure_sealevel;temperature;humidity
78313;BME280;67568;47.438;21.408;2023-07-29T00:01:23;100141.44;;;21.10;80.11
78313;BME280;67568;47.438;21.408;2023-07-29T00:03:50;100153.16;;;21.12;79.97
78313;BME280;67568;47.438;21.408;2023-07-29T00:06:17;100144.28;;;21.10;79.92
78313;BME280;67568;47.438;21.408;2023-07-29T00:08:44;100141.06;;;21.11;79.75
78313;BME280;67568;47.438;21.408;2023-07-29T00:11:10;100141.41;;;21.06;79.50
78313;BME280;67568;47.438;21.408;2023-07-29T00:13:37;100126.56;;;21.09;79.66
78313;BME280;67568;47.438;21.408;2023-07-29T00:16:04;100136.19;;;21.08;78.98
78313;BME280;67568;47.438;21.408;2023-07-29T00:18:33;100138.19;;;21.08;79.31
78313;BME280;67568;47.438;21.408;2023-07-29T00:21:00;100129.31;;;21.06;79.15
78313;BME280;67568;47.438;21.408;2023-07-29T00:23:28;100123.25;;;21.04;79.75
78313;BME280;67568;47.438;21.408;2023-07-29T00:25:55;100125.25;;;21.03;79.70
78313;BME280;67568;47.438;21.408;2023-07-29T00:28:22;100117.97;;;21.02;79.83
78313;BME280;67568;47.438;21.408;2023-07-29T00:30:49;100119.13;;;20.98;80.28
78313;BME280;67568;47.438;21.408;2023-07-29T00:33:17;100122.75;;;20.98;80.49
78313;BME280;67568;47.438;21.408;2023-07-29T00:35:44;100119.13;;;20.98;80.50
78313;BME280;67568;47.438;21.408;2023-07-29T00:38:11;100121.97;;;20.98;80.28
78313;BME280;67568;47.438;21.408;2023-07-29T00:40:37;100118.69;;;20.96;80.74
78313;BME280;67568;47.438;21.408;2023-07-29T00:43:05;100121.50;;;20.96;80.33
78313;BME280;67568;47.438;21.408;2023-07-29T00:45:32;100120.25;;;20.93;80.56
78313;BME280;67568;47.438;21.408;2023-07-29T00:48:00;100118.25;;;20.94;80.98
78313;BME280;67568;47.438;21.408;2023-07-29T00:50:29;100118.66;;;20.92;81.03
78313;BME280;67568;47.438;21.408;2023-07-29T00:52:57;100123.41;;;20.88;81.53
78313;BME280;67568;47.438;21.408;2023-07-29T00:55:24;100113.19;;;20.80;82.20
78313;BME280;67568;47.438;21.408;2023-07-29T00:57:51;100117.47;;;20.70;83.31
78313;BME280;67568;47.438;21.408;2023-07-29T01:00:18;100118.19;;;20.63;83.28
78313;BME280;67568;47.438;21.408;2023-07-29T01:02:45;100122.91;;;20.59;83.89
78313;BME280;67568;47.438;21.408;2023-07-29T01:05:13;100134.19;;;20.59;83.58
78313;BME280;67568;47.438;21.408;2023-07-29T01:07:55;100125.28;;;20.57;83.25
78313;BME280;67568;47.438;21.408;2023-07-29T01:13:39;100114.53;;;20.63;84.20
78313;BME280;67568;47.438;21.408;2023-07-29T01:16:17;100115.66;;;20.58;84.40
78313;BME280;67568;47.438;21.408;2023-07-29T01:18:47;100120.56;;;20.61;83.66
78313;BME280;67568;47.438;21.408;2023-07-29T01:21:16;100122.47;;;20.57;84.54
78313;BME280;67568;47.438;21.408;2023-07-29T01:23:43;100122.78;;;20.52;84.62
78313;BME280;67568;47.438;21.408;2023-07-29T01:26:10;100122.63;;;20.45;84.46
78313;BME280;67568;47.438;21.408;2023-07-29T01:28:37;100128.41;;;20.52;83.68
78313;BME280;67568;47.438;21.408;2023-07-29T01:31:11;100140.13;;;20.54;83.98
78313;BME280;67568;47.438;21.408;2023-07-29T01:33:42;100138.94;;;20.55;84.25
78313;BME280;67568;47.438;21.408;2023-07-29T01:36:19;100133.31;;;20.55;83.98
78313;BME280;67568;47.438;21.408;2023-07-29T01:38:48;100131.75;;;20.58;83.78
78313;BME280;67568;47.438;21.408;2023-07-29T01:41:15;100131.81;;;20.61;84.33
78313;BME280;67568;47.438;21.408;2023-07-29T01:43:44;100124.53;;;20.60;84.17
78313;BME280;67568;47.438;21.408;2023-07-29T01:46:11;100124.47;;;20.57;85.63
78313;BME280;67568;47.438;21.408;2023-07-29T01:48:39;100112.34;;;20.53;85.60
78313;BME280;67568;47.438;21.408;2023-07-29T01:51:06;100110.63;;;20.48;85.93
78313;BME280;67568;47.438;21.408;2023-07-29T01:53:33;100112.28;;;20.49;85.93
78313;BME280;67568;47.438;21.408;2023-07-29T01:56:00;100109.00;;;20.47;85.96
78313;BME280;67568;47.438;21.408;2023-07-29T01:58:27;100107.38;;;20.46;85.26
78313;BME280;67568;47.438;21.408;2023-07-29T02:00:54;100110.50;;;20.41;85.78
78313;BME280;67568;47.438;21.408;2023-07-29T02:03:21;100103.69;;;20.42;85.40
78313;BME280;67568;47.438;21.408;2023-07-29T02:05:50;100103.25;;;20.40;86.49
78313;BME280;67568;47.438;21.408;2023-07-29T02:08:17;100100.88;;;20.42;86.59
78313;BME280;67568;47.438;21.408;2023-07-29T02:10:44;100102.50;;;20.43;86.24
78313;BME280;67568;47.438;21.408;2023-07-29T02:13:11;100104.88;;;20.41;86.57
78313;BME280;67568;47.438;21.408;2023-07-29T02:15:38;100105.69;;;20.41;86.00
78313;BME280;67568;47.438;21.408;2023-07-29T02:18:05;100108.88;;;20.40;86.30
78313;BME280;67568;47.438;21.408;2023-07-29T02:20:32;100112.31;;;20.30;87.09
78313;BME280;67568;47.438;21.408;2023-07-29T02:22:58;100113.38;;;20.21;87.51
78313;BME280;67568;47.438;21.408;2023-07-29T02:25:25;100116.50;;;20.16;87.07
78313;BME280;67568;47.438;21.408;2023-07-29T02:27:52;100111.66;;;20.17;87.35
78313;BME280;67568;47.438;21.408;2023-07-29T02:30:21;100108.84;;;20.17;86.09
78313;BME280;67568;47.438;21.408;2023-07-29T02:32:48;100111.72;;;20.20;85.92
78313;BME280;67568;47.438;21.408;2023-07-29T02:35:15;100111.72;;;20.20;86.77
78313;BME280;67568;47.438;21.408;2023-07-29T02:37:41;100118.25;;;20.25;86.80
78313;BME280;67568;47.438;21.408;2023-07-29T02:40:11;100114.88;;;20.15;87.28
78313;BME280;67568;47.438;21.408;2023-07-29T02:42:38;100116.34;;;20.09;88.17
78313;BME280;67568;47.438;21.408;2023-07-29T02:45:05;100129.09;;;20.03;88.45
78313;BME280;67568;47.438;21.408;2023-07-29T02:47:32;100116.34;;;20.09;87.28
78313;BME280;67568;47.438;21.408;2023-07-29T02:49:58;100128.50;;;20.13;86.73
78313;BME280;67568;47.438;21.408;2023-07-29T02:52:25;100137.63;;;20.07;86.96
78313;BME280;67568;47.438;21.408;2023-07-29T02:54:52;100130.72;;;20.04;87.49
78313;BME280;67568;47.438;21.408;2023-07-29T02:57:18;100124.41;;;20.11;87.30
78313;BME280;67568;47.438;21.408;2023-07-29T02:59:45;100128.50;;;19.94;88.73
78313;BME280;67568;47.438;21.408;2023-07-29T03:02:12;100132.50;;;19.93;88.26
78313;BME280;67568;47.438;21.408;2023-07-29T03:04:39;100130.56;;;19.97;87.34
78313;BME280;67568;47.438;21.408;2023-07-29T03:07:06;100137.84;;;19.98;87.24
78313;BME280;67568;47.438;21.408;2023-07-29T03:09:34;100132.28;;;20.02;87.71
78313;BME280;67568;47.438;21.408;2023-07-29T03:12:02;100146.78;;;20.04;87.81
78313;BME280;67568;47.438;21.408;2023-07-29T03:14:29;100132.00;;;20.07;88.34
78313;BME280;67568;47.438;21.408;2023-07-29T03:16:56;100139.53;;;20.03;88.55
78313;BME280;67568;47.438;21.408;2023-07-29T03:19:23;100126.72;;;20.05;87.86
78313;BME280;67568;47.438;21.408;2023-07-29T03:21:50;100129.47;;;20.02;88.33
78313;BME280;67568;47.438;21.408;2023-07-29T03:24:16;100132.94;;;19.95;87.85
78313;BME280;67568;47.438;21.408;2023-07-29T03:26:46;100139.41;;;19.95;87.82
78313;BME280;67568;47.438;21.408;2023-07-29T03:29:13;100147.91;;;19.80;87.96
78313;BME280;67568;47.438;21.408;2023-07-29T03:31:39;100142.84;;;19.69;88.20
78313;BME280;67568;47.438;21.408;2023-07-29T03:34:06;100147.59;;;19.65;88.17
78313;BME280;67568;47.438;21.408;2023-07-29T03:36:33;100147.75;;;19.72;86.99
78313;BME280;67568;47.438;21.408;2023-07-29T03:39:00;100148.56;;;19.73;87.07
78313;BME280;67568;47.438;21.408;2023-07-29T03:41:27;100154.09;;;19.69;86.73
78313;BME280;67568;47.438;21.408;2023-07-29T03:43:54;100158.84;;;19.65;86.83
78313;BME280;67568;47.438;21.408;2023-07-29T03:46:21;100149.22;;;19.66;86.54
78313;BME280;67568;47.438;21.408;2023-07-29T03:48:47;100151.75;;;19.71;86.53
78313;BME280;67568;47.438;21.408;2023-07-29T03:51:14;100156.47;;;19.67;85.35
78313;BME280;67568;47.438;21.408;2023-07-29T03:53:41;100157.19;;;19.64;85.15
78313;BME280;67568;47.438;21.408;2023-07-29T03:56:08;100153.41;;;19.57;85.19
78313;BME280;67568;47.438;21.408;2023-07-29T03:58:35;100151.03;;;19.59;84.53
78313;BME280;67568;47.438;21.408;2023-07-29T04:01:02;100145.50;;;19.62;84.92
78313;BME280;67568;47.438;21.408;2023-07-29T04:03:29;100155.19;;;19.65;83.71
78313;BME280;67568;47.438;21.408;2023-07-29T04:05:56;100146.13;;;19.71;83.13
78313;BME280;67568;47.438;21.408;2023-07-29T04:08:23;100159.94;;;19.80;83.25
78313;BME280;67568;47.438;21.408;2023-07-29T04:10:49;100165.34;;;19.89;82.84
78313;BME280;67568;47.438;21.408;2023-07-29T04:13:16;100159.09;;;19.95;81.49
78313;BME280;67568;47.438;21.408;2023-07-29T04:15:43;100161.97;;;19.99;81.15
78313;BME280;67568;47.438;21.408;2023-07-29T04:18:10;100161.97;;;19.99;80.00
78313;BME280;67568;47.438;21.408;2023-07-29T04:20:37;100168.97;;;19.89;81.23
78313;BME280;67568;47.438;21.408;2023-07-29T04:23:04;100164.63;;;19.92;80.81
78313;BME280;67568;47.438;21.408;2023-07-29T04:25:31;100150.13;;;19.90;80.41
78313;BME280;67568;47.438;21.408;2023-07-29T04:27:57;100159.38;;;19.90;80.04
78313;BME280;67568;47.438;21.408;2023-07-29T04:30:24;100165.53;;;19.96;79.16
78313;BME280;67568;47.438;21.408;2023-07-29T04:32:51;100157.00;;;19.92;79.53
78313;BME280;67568;47.438;21.408;2023-07-29T04:35:18;100163.28;;;19.86;79.65
78313;BME280;67568;47.438;21.408;2023-07-29T04:37:45;100158.13;;;19.88;78.90
78313;BME280;67568;47.438;21.408;2023-07-29T04:40:12;100166.56;;;19.88;78.55
78313;BME280;67568;47.438;21.408;2023-07-29T04:42:38;100176.75;;;19.96;78.06
78313;BME280;67568;47.438;21.408;2023-07-29T04:45:05;100175.56;;;20.16;78.17
78313;BME280;67568;47.438;21.408;2023-07-29T04:47:32;100181.28;;;20.43;77.83
78313;BME280;67568;47.438;21.408;2023-07-29T04:49:59;100173.72;;;20.66;76.42
78313;BME280;67568;47.438;21.408;2023-07-29T04:52:26;100177.56;;;20.78;76.35
78313;BME280;67568;47.438;21.408;2023-07-29T04:54:52;100178.22;;;20.94;75.12
78313;BME280;67568;47.438;21.408;2023-07-29T04:57:19;100180.84;;;21.06;74.32
78313;BME280;67568;47.438;21.408;2023-07-29T04:59:46;100181.94;;;21.25;72.67
78313;BME280;67568;47.438;21.408;2023-07-29T05:02:15;100188.75;;;21.47;71.73
78313;BME280;67568;47.438;21.408;2023-07-29T05:04:50;100195.84;;;21.64;71.35
78313;BME280;67568;47.438;21.408;2023-07-29T05:07:17;100194.63;;;21.65;70.30
78313;BME280;67568;47.438;21.408;2023-07-29T05:09:44;100198.34;;;21.69;70.64
78313;BME280;67568;47.438;21.408;2023-07-29T05:12:11;100196.91;;;21.86;69.54
78313;BME280;67568;47.438;21.408;2023-07-29T05:14:38;100189.03;;;21.68;68.65
78313;BME280;67568;47.438;21.408;2023-07-29T05:17:05;100192.41;;;21.77;68.04
78313;BME280;67568;47.438;21.408;2023-07-29T05:19:32;100195.59;;;21.76;68.70
78313;BME280;67568;47.438;21.408;2023-07-29T05:21:59;100195.59;;;22.06;67.83
78313;BME280;67568;47.438;21.408;2023-07-29T05:24:26;100200.34;;;22.29;68.64
78313;BME280;67568;47.438;21.408;2023-07-29T05:26:52;100195.66;;;22.43;66.79
78313;BME280;67568;47.438;21.408;2023-07-29T05:29:19;100192.03;;;22.13;66.44
78313;BME280;67568;47.438;21.408;2023-07-29T05:31:46;100200.50;;;22.13;67.49
78313;BME280;67568;47.438;21.408;2023-07-29T05:34:12;100195.88;;;21.97;68.69
78313;BME280;67568;47.438;21.408;2023-07-29T05:36:39;100189.63;;;21.81;68.42
78313;BME280;67568;47.438;21.408;2023-07-29T05:39:06;100191.53;;;21.73;69.17
78313;BME280;67568;47.438;21.408;2023-07-29T05:41:35;100202.28;;;21.64;69.59
78313;BME280;67568;47.438;21.408;2023-07-29T05:44:02;100205.16;;;21.68;69.58
78313;BME280;67568;47.438;21.408;2023-07-29T05:46:29;100202.94;;;21.54;70.90
78313;BME280;67568;47.438;21.408;2023-07-29T05:48:56;100207.72;;;21.50;70.79
78313;BME280;67568;47.438;21.408;2023-07-29T05:51:22;100205.00;;;21.57;71.00
78313;BME280;67568;47.438;21.408;2023-07-29T05:53:49;100204.28;;;21.64;71.65
78313;BME280;67568;47.438;21.408;2023-07-29T05:56:16;100208.13;;;22.09;70.30
78313;BME280;67568;47.438;21.408;2023-07-29T05:58:42;100210.22;;;22.45;68.61
78313;BME280;67568;47.438;21.408;2023-07-29T06:01:09;100220.28;;;22.84;67.09
78313;BME280;67568;47.438;21.408;2023-07-29T06:03:37;100204.75;;;23.04;66.44
78313;BME280;67568;47.438;21.408;2023-07-29T06:06:04;100204.50;;;23.27;64.57
78313;BME280;67568;47.438;21.408;2023-07-29T06:08:30;100213.09;;;23.42;64.30
78313;BME280;67568;47.438;21.408;2023-07-29T06:10:57;100223.84;;;23.73;64.13
78313;BME280;67568;47.438;21.408;2023-07-29T06:13:24;100223.56;;;23.93;62.75
78313;BME280;67568;47.438;21.408;2023-07-29T06:15:50;100230.19;;;24.22;63.21
78313;BME280;67568;47.438;21.408;2023-07-29T06:18:17;100221.81;;;24.54;61.83
78313;BME280;67568;47.438;21.408;2023-07-29T06:20:44;100227.13;;;24.74;61.15
78313;BME280;67568;47.438;21.408;2023-07-29T06:23:14;100225.94;;;25.03;60.61
78313;BME280;67568;47.438;21.408;2023-07-29T06:25:42;100229.22;;;25.16;60.12
78313;BME280;67568;47.438;21.408;2023-07-29T06:28:09;100230.41;;;25.33;58.80
78313;BME280;67568;47.438;21.408;2023-07-29T06:30:36;100229.19;;;25.27;58.90
78313;BME280;67568;47.438;21.408;2023-07-29T06:33:03;100236.88;;;25.44;59.45
78313;BME280;67568;47.438;21.408;2023-07-29T06:35:29;100228.78;;;25.50;59.07
78313;BME280;67568;47.438;21.408;2023-07-29T06:37:56;100234.47;;;25.39;59.34
78313;BME280;67568;47.438;21.408;2023-07-29T06:40:23;100237.69;;;25.27;60.58
78313;BME280;67568;47.438;21.408;2023-07-29T06:42:52;100236.88;;;25.12;60.01
78313;BME280;67568;47.438;21.408;2023-07-29T06:45:19;100229.97;;;25.13;60.41
78313;BME280;67568;47.438;21.408;2023-07-29T06:47:46;100227.13;;;25.09;60.50
78313;BME280;67568;47.438;21.408;2023-07-29T06:50:13;100223.50;;;25.05;60.08
78313;BME280;67568;47.438;21.408;2023-07-29T06:52:40;100221.44;;;24.84;60.72
78313;BME280;67568;47.438;21.408;2023-07-29T06:55:07;100225.50;;;24.80;60.83
78313;BME280;67568;47.438;21.408;2023-07-29T06:57:33;100227.19;;;25.17;60.76
78313;BME280;67568;47.438;21.408;2023-07-29T07:00:01;100228.38;;;25.44;59.82
78313;BME280;67568;47.438;21.408;2023-07-29T07:02:28;100226.34;;;25.52;59.45
78313;BME280;67568;47.438;21.408;2023-07-29T07:04:55;100221.88;;;25.62;58.76
78313;BME280;67568;47.438;21.408;2023-07-29T07:07:22;100227.94;;;25.64;58.80
78313;BME280;67568;47.438;21.408;2023-07-29T07:09:52;100221.88;;;25.54;59.11
78313;BME280;67568;47.438;21.408;2023-07-29T07:12:18;100219.06;;;25.62;59.41
78313;BME280;67568;47.438;21.408;2023-07-29T07:14:48;100225.94;;;25.53;59.42
78313;BME280;67568;47.438;21.408;2023-07-29T07:17:15;100219.88;;;25.48;59.83
78313;BME280;67568;47.438;21.408;2023-07-29T07:19:46;100220.69;;;25.41;60.30
78313;BME280;67568;47.438;21.408;2023-07-29T07:22:13;100221.06;;;25.57;59.59
78313;BME280;67568;47.438;21.408;2023-07-29T07:24:39;100228.75;;;25.93;58.80
78313;BME280;67568;47.438;21.408;2023-07-29T07:27:06;100232.38;;;25.93;58.13
78313;BME280;67568;47.438;21.408;2023-07-29T07:29:33;100232.75;;;25.81;59.38
78313;BME280;67568;47.438;21.408;2023-07-29T07:32:00;100228.66;;;26.14;57.27
78313;BME280;67568;47.438;21.408;2023-07-29T07:34:26;100223.75;;;26.22;57.83
78313;BME280;67568;47.438;21.408;2023-07-29T07:36:53;100231.72;;;26.48;57.64
78313;BME280;67568;47.438;21.408;2023-07-29T07:39:20;100224.50;;;26.37;57.49
78313;BME280;67568;47.438;21.408;2023-07-29T07:41:47;100230.16;;;26.37;56.98
78313;BME280;67568;47.438;21.408;2023-07-29T07:44:13;100228.50;;;26.54;56.29
78313;BME280;67568;47.438;21.408;2023-07-29T07:46:40;100234.09;;;26.68;56.14
78313;BME280;67568;47.438;21.408;2023-07-29T07:49:07;100226.94;;;26.31;56.20
78313;BME280;67568;47.438;21.408;2023-07-29T07:51:34;100221.66;;;26.30;56.81
78313;BME280;67568;47.438;21.408;2023-07-29T07:54:01;100220.88;;;26.25;57.10
78313;BME280;67568;47.438;21.408;2023-07-29T07:56:27;100222.88;;;26.32;57.29
78313;BME280;67568;47.438;21.408;2023-07-29T07:58:57;100218.81;;;26.30;57.39
78313;BME280;67568;47.438;21.408;2023-07-29T08:01:23;100224.50;;;26.37;57.14
78313;BME280;67568;47.438;21.408;2023-07-29T08:03:50;100216.28;;;26.50;56.51
78313;BME280;67568;47.438;21.408;2023-07-29T08:06:17;100210.72;;;26.28;56.42
78313;BME280;67568;47.438;21.408;2023-07-29T08:08:44;100210.22;;;26.58;56.53
78313;BME280;67568;47.438;21.408;2023-07-29T08:11:11;100217.81;;;26.76;56.46
78313;BME280;67568;47.438;21.408;2023-07-29T08:13:38;100212.81;;;26.90;56.22
78313;BME280;67568;47.438;21.408;2023-07-29T08:16:04;100215.22;;;26.96;54.76
78313;BME280;67568;47.438;21.408;2023-07-29T08:18:31;100208.41;;;27.38;54.84
78313;BME280;67568;47.438;21.408;2023-07-29T08:20:59;100205.06;;;27.47;52.90
78313;BME280;67568;47.438;21.408;2023-07-29T08:23:26;100209.66;;;27.71;53.12
78313;BME280;67568;47.438;21.408;2023-07-29T08:25:54;100207.22;;;27.73;53.08
78313;BME280;67568;47.438;21.408;2023-07-29T08:28:22;100207.84;;;27.92;50.79
78313;BME280;67568;47.438;21.408;2023-07-29T08:30:49;100201.69;;;27.59;51.03
78313;BME280;67568;47.438;21.408;2023-07-29T08:33:18;100196.28;;;28.06;51.49
78313;BME280;67568;47.438;21.408;2023-07-29T08:35:44;100198.94;;;28.20;50.49
78313;BME280;67568;47.438;21.408;2023-07-29T08:38:11;100202.84;;;28.64;49.80
78313;BME280;67568;47.438;21.408;2023-07-29T08:40:43;100205.81;;;29.11;48.25
78313;BME280;67568;47.438;21.408;2023-07-29T08:43:12;100202.59;;;29.33;47.69
78313;BME280;67568;47.438;21.408;2023-07-29T08:45:41;100205.06;;;29.07;48.14
78313;BME280;67568;47.438;21.408;2023-07-29T08:48:10;100199.78;;;28.52;49.61
78313;BME280;67568;47.438;21.408;2023-07-29T08:50:37;100201.16;;;28.06;49.96
78313;BME280;67568;47.438;21.408;2023-07-29T08:53:04;100195.25;;;28.23;49.52
78313;BME280;67568;47.438;21.408;2023-07-29T08:55:32;100193.56;;;28.26;50.38
78313;BME280;67568;47.438;21.408;2023-07-29T08:58:00;100186.41;;;28.14;49.97
78313;BME280;67568;47.438;21.408;2023-07-29T09:00:27;100194.66;;;28.05;51.22
78313;BME280;67568;47.438;21.408;2023-07-29T09:02:54;100193.09;;;28.00;50.94
78313;BME280;67568;47.438;21.408;2023-07-29T09:05:21;100188.97;;;28.05;50.07
78313;BME280;67568;47.438;21.408;2023-07-29T09:07:51;100190.69;;;27.99;49.73
78313;BME280;67568;47.438;21.408;2023-07-29T09:10:25;100179.47;;;27.85;50.36
78313;BME280;67568;47.438;21.408;2023-07-29T09:12:55;100185.31;;;28.05;49.69
78313;BME280;67568;47.438;21.408;2023-07-29T09:15:28;100179.97;;;28.10;49.95
78313;BME280;67568;47.438;21.408;2023-07-29T09:17:56;100178.34;;;28.09;49.92
78313;BME280;67568;47.438;21.408;2023-07-29T09:20:27;100177.75;;;27.91;49.61
78313;BME280;67568;47.438;21.408;2023-07-29T09:22:57;100177.00;;;28.17;49.10
78313;BME280;67568;47.438;21.408;2023-07-29T09:25:29;100186.78;;;28.16;48.44
78313;BME280;67568;47.438;21.408;2023-07-29T09:27:59;100173.88;;;28.39;48.06
78313;BME280;67568;47.438;21.408;2023-07-29T09:30:27;100176.22;;;28.47;47.21
78313;BME280;67568;47.438;21.408;2023-07-29T09:32:58;100190.00;;;28.53;47.98
78313;BME280;67568;47.438;21.408;2023-07-29T09:35:29;100187.41;;;28.62;46.95
78313;BME280;67568;47.438;21.408;2023-07-29T09:37:57;100176.72;;;28.69;48.07
78313;BME280;67568;47.438;21.408;2023-07-29T09:40:24;100177.78;;;28.52;48.28
78313;BME280;67568;47.438;21.408;2023-07-29T09:42:54;100178.44;;;28.33;47.37
78313;BME280;67568;47.438;21.408;2023-07-29T09:45:22;100179.78;;;28.24;48.61
78313;BME280;67568;47.438;21.408;2023-07-29T09:47:51;100174.59;;;28.74;47.49
78313;BME280;67568;47.438;21.408;2023-07-29T09:50:18;100176.59;;;28.77;48.74
78313;BME280;67568;47.438;21.408;2023-07-29T09:52:45;100176.50;;;28.84;47.69
78313;BME280;67568;47.438;21.408;2023-07-29T09:55:13;100168.47;;;28.75;47.09
78313;BME280;67568;47.438;21.408;2023-07-29T09:57:40;100166.59;;;28.34;48.11
78313;BME280;67568;47.438;21.408;2023-07-29T10:00:09;100167.44;;;28.04;48.61
78313;BME280;67568;47.438;21.408;2023-07-29T10:02:41;100169.97;;;28.25;47.74
78313;BME280;67568;47.438;21.408;2023-07-29T10:05:09;100163.47;;;28.25;46.75
78313;BME280;67568;47.438;21.408;2023-07-29T10:07:37;100163.66;;;28.11;47.44
78313;BME280;67568;47.438;21.408;2023-07-29T10:10:06;100159.75;;;28.01;47.50
78313;BME280;67568;47.438;21.408;2023-07-29T10:12:34;100154.72;;;28.09;47.53
78313;BME280;67568;47.438;21.408;2023-07-29T10:15:05;100155.94;;;28.42;47.04
78313;BME280;67568;47.438;21.408;2023-07-29T10:17:35;100154.94;;;28.56;46.54
78313;BME280;67568;47.438;21.408;2023-07-29T10:20:07;100157.16;;;28.68;46.29
78313;BME280;67568;47.438;21.408;2023-07-29T10:22:39;100154.41;;;28.88;46.02
78313;BME280;67568;47.438;21.408;2023-07-29T10:25:17;100141.91;;;28.55;45.56
78313;BME280;67568;47.438;21.408;2023-07-29T10:30:11;100148.31;;;29.13;44.86
78313;BME280;67568;47.438;21.408;2023-07-29T10:32:38;100146.09;;;28.97;44.40
78313;BME280;67568;47.438;21.408;2023-07-29T10:35:07;100147.28;;;28.76;45.94
78313;BME280;67568;47.438;21.408;2023-07-29T10:37:35;100140.91;;;28.38;46.86
78313;BME280;67568;47.438;21.408;2023-07-29T10:40:06;100151.22;;;28.28;46.69
78313;BME280;67568;47.438;21.408;2023-07-29T10:42:33;100145.66;;;28.17;47.40
78313;BME280;67568;47.438;21.408;2023-07-29T10:45:00;100134.34;;;28.41;47.46
78313;BME280;67568;47.438;21.408;2023-07-29T10:47:28;100144.56;;;28.38;47.07
78313;BME280;67568;47.438;21.408;2023-07-29T10:49:56;100135.28;;;28.61;45.93
78313;BME280;67568;47.438;21.408;2023-07-29T10:52:40;100121.78;;;28.65;46.29
78313;BME280;67568;47.438;21.408;2023-07-29T10:55:27;100133.88;;;28.73;47.25
78313;BME280;67568;47.438;21.408;2023-07-29T10:58:24;100124.28;;;28.87;46.48
78313;BME280;67568;47.438;21.408;2023-07-29T11:00:51;100130.31;;;28.92;46.17
78313;BME280;67568;47.438;21.408;2023-07-29T11:03:17;100122.66;;;29.33;45.60
78313;BME280;67568;47.438;21.408;2023-07-29T11:05:51;100123.47;;;29.33;44.63
78313;BME280;67568;47.438;21.408;2023-07-29T11:11:09;100116.91;;;29.56;43.83
78313;BME280;67568;47.438;21.408;2023-07-29T11:13:38;100104.66;;;29.36;46.24
78313;BME280;67568;47.438;21.408;2023-07-29T11:16:06;100116.84;;;29.40;45.14
78313;BME280;67568;47.438;21.408;2023-07-29T11:18:35;100118.03;;;29.63;43.92
78313;BME280;67568;47.438;21.408;2023-07-29T11:21:05;100115.53;;;29.65;44.67
78313;BME280;67568;47.438;21.408;2023-07-29T11:23:35;100102.09;;;29.22;44.78
78313;BME280;67568;47.438;21.408;2023-07-29T11:26:03;100108.78;;;29.11;44.61
78313;BME280;67568;47.438;21.408;2023-07-29T11:28:38;100100.22;;;29.11;45.04
78313;BME280;67568;47.438;21.408;2023-07-29T11:31:05;100101.66;;;29.23;44.47
78313;BME280;67568;47.438;21.408;2023-07-29T11:33:33;100100.81;;;29.23;44.62
78313;BME280;67568;47.438;21.408;2023-07-29T11:36:00;100098.78;;;29.00;45.10
78313;BME280;67568;47.438;21.408;2023-07-29T11:38:27;100094.75;;;28.50;45.60
78313;BME280;67568;47.438;21.408;2023-07-29T11:41:01;100092.69;;;28.51;46.50
78313;BME280;67568;47.438;21.408;2023-07-29T11:43:27;100088.41;;;28.86;45.61
78313;BME280;67568;47.438;21.408;2023-07-29T11:45:54;100088.06;;;28.84;46.06
78313;BME280;67568;47.438;21.408;2023-07-29T11:48:32;100080.72;;;28.83;45.70
78313;BME280;67568;47.438;21.408;2023-07-29T11:51:00;100082.72;;;28.86;46.68
78313;BME280;67568;47.438;21.408;2023-07-29T11:53:30;100078.28;;;28.61;46.53
78313;BME280;67568;47.438;21.408;2023-07-29T11:55:58;100076.63;;;28.60;46.32
78313;BME280;67568;47.438;21.408;2023-07-29T11:58:26;100069.41;;;28.56;46.93
78313;BME280;67568;47.438;21.408;2023-07-29T12:00:53;100078.06;;;28.48;47.29
78313;BME280;67568;47.438;21.408;2023-07-29T12:03:20;100081.22;;;28.27;48.44
78313;BME280;67568;47.438;21.408;2023-07-29T12:05:48;100078.25;;;28.07;47.99
78313;BME280;67568;47.438;21.408;2023-07-29T12:08:15;100074.16;;;28.08;48.48
78313;BME280;67568;47.438;21.408;2023-07-29T12:10:44;100086.34;;;28.12;49.74
78313;BME280;67568;47.438;21.408;2023-07-29T12:13:11;100078.34;;;28.00;48.79
78313;BME280;67568;47.438;21.408;2023-07-29T12:15:38;100078.25;;;28.07;48.73
78313;BME280;67568;47.438;21.408;2023-07-29T12:18:05;100076.16;;;28.11;48.28
78313;BME280;67568;47.438;21.408;2023-07-29T12:20:32;100076.94;;;28.15;48.65
78313;BME280;67568;47.438;21.408;2023-07-29T12:22:59;100073.94;;;28.22;48.82
78313;BME280;67568;47.438;21.408;2023-07-29T12:25:27;100073.22;;;28.45;47.64
78313;BME280;67568;47.438;21.408;2023-07-29T12:27:54;100070.75;;;28.71;47.34
78313;BME280;67568;47.438;21.408;2023-07-29T12:30:22;100068.72;;;28.95;47.26
78313;BME280;67568;47.438;21.408;2023-07-29T12:32:49;100059.66;;;29.00;46.91
78313;BME280;67568;47.438;21.408;2023-07-29T12:35:16;100061.69;;;29.00;46.41
78313;BME280;67568;47.438;21.408;2023-07-29T12:37:43;100057.56;;;29.04;46.49
78313;BME280;67568;47.438;21.408;2023-07-29T12:40:25;100060.03;;;28.79;46.69
78313;BME280;67568;47.438;21.408;2023-07-29T12:42:53;100049.75;;;28.61;47.18
78313;BME280;67568;47.438;21.408;2023-07-29T12:45:20;100053.31;;;28.42;47.54
78313;BME280;67568;47.438;21.408;2023-07-29T12:47:46;100039.22;;;28.31;47.92
78313;BME280;67568;47.438;21.408;2023-07-29T12:50:13;100043.84;;;28.21;47.38
78313;BME280;67568;47.438;21.408;2023-07-29T12:52:43;100038.38;;;28.07;47.96